CYVM

Qikiqtarjuaq Airport

Qikiqtarjuaq, Canada
METAR CYVM 231256Z AUTO 01003KT 9SM -RA OVC070 06/02 A2969 RMK SLP057
Observed Flight Rules
Jul-23 @ 12:56 UTC (10 minutes ago) Visual Flight Rules
Wind Visibility Clouds Conditions
10° at 3 knots 9 miles
  • Overcast at 7,000' AGL
  • Light Rain
Temperatures Readings
Current 6°C / 43°F
Dewpoint 2°C / 36°F
Humidity 76%
Altimeter 29.69" Hg
Pressure 1005.7 hPa
Elevation 6
METAR CYVM 231256Z AUTO 01003KT 9SM -RA OVC070 06/02 A2969 RMK SLP057
Observed Flight Rules
Jul-23 @ 12:56 UTC
(10 minutes ago)
VFR
Wind Visibility
10° at 3 knots 9 miles
Clouds
  • Overcast at 7,000' AGL
Conditions
  • Light Rain
Temperature Dewpoint
6°C / 43°F 2°C / 36°F
Humidity Altimeter Pressure
76% 29.69" Hg 1005.7 hPa